sensor_id;sensor_type;location;lat;lon;timestamp;P1;durP1;ratioP1;P2;durP2;ratioP2
55216;SDS011;41086;46.736;15.666;2023-01-23T00:01:18;20.33;;;12.45;;
55216;SDS011;41086;46.736;15.666;2023-01-23T00:03:50;13.85;;;9.02;;
55216;SDS011;41086;46.736;15.666;2023-01-23T00:06:18;20.48;;;12.18;;
55216;SDS011;41086;46.736;15.666;2023-01-23T00:08:45;15.52;;;9.93;;
55216;SDS011;41086;46.736;15.666;2023-01-23T00:11:13;19.85;;;10.25;;
55216;SDS011;41086;46.736;15.666;2023-01-23T00:13:42;11.73;;;7.93;;
55216;SDS011;41086;46.736;15.666;2023-01-23T00:16:12;17.48;;;9.77;;
55216;SDS011;41086;46.736;15.666;2023-01-23T00:18:41;14.52;;;9.60;;
55216;SDS011;41086;46.736;15.666;2023-01-23T00:21:09;14.65;;;9.18;;
55216;SDS011;41086;46.736;15.666;2023-01-23T00:23:40;13.90;;;8.27;;
55216;SDS011;41086;46.736;15.666;2023-01-23T00:26:12;11.95;;;7.93;;
55216;SDS011;41086;46.736;15.666;2023-01-23T00:28:43;10.77;;;7.78;;
55216;SDS011;41086;46.736;15.666;2023-01-23T00:31:12;16.33;;;9.13;;
55216;SDS011;41086;46.736;15.666;2023-01-23T00:33:41;17.67;;;10.80;;
55216;SDS011;41086;46.736;15.666;2023-01-23T00:36:09;18.00;;;11.85;;
55216;SDS011;41086;46.736;15.666;2023-01-23T00:38:36;15.57;;;10.18;;
55216;SDS011;41086;46.736;15.666;2023-01-23T00:41:03;18.23;;;11.23;;
55216;SDS011;41086;46.736;15.666;2023-01-23T00:43:31;16.52;;;11.65;;
55216;SDS011;41086;46.736;15.666;2023-01-23T00:45:58;18.17;;;11.02;;
55216;SDS011;41086;46.736;15.666;2023-01-23T00:48:25;23.02;;;11.50;;
55216;SDS011;41086;46.736;15.666;2023-01-23T00:50:53;19.10;;;11.65;;
55216;SDS011;41086;46.736;15.666;2023-01-23T00:53:20;14.88;;;9.68;;
55216;SDS011;41086;46.736;15.666;2023-01-23T00:55:47;15.43;;;8.77;;
55216;SDS011;41086;46.736;15.666;2023-01-23T00:58:14;17.15;;;10.65;;
55216;SDS011;41086;46.736;15.666;2023-01-23T01:00:41;20.10;;;11.80;;
55216;SDS011;41086;46.736;15.666;2023-01-23T01:03:07;18.48;;;12.23;;
55216;SDS011;41086;46.736;15.666;2023-01-23T01:05:34;22.75;;;12.18;;
55216;SDS011;41086;46.736;15.666;2023-01-23T01:08:02;16.10;;;11.50;;
55216;SDS011;41086;46.736;15.666;2023-01-23T01:10:29;18.05;;;12.25;;
55216;SDS011;41086;46.736;15.666;2023-01-23T01:12:58;18.25;;;12.25;;
55216;SDS011;41086;46.736;15.666;2023-01-23T01:15:26;17.20;;;12.25;;
55216;SDS011;41086;46.736;15.666;2023-01-23T01:17:55;17.63;;;12.52;;
55216;SDS011;41086;46.736;15.666;2023-01-23T01:20:22;19.40;;;12.77;;
55216;SDS011;41086;46.736;15.666;2023-01-23T01:22:52;18.75;;;12.70;;
55216;SDS011;41086;46.736;15.666;2023-01-23T01:25:20;15.85;;;11.30;;
55216;SDS011;41086;46.736;15.666;2023-01-23T01:30:15;19.48;;;12.50;;
55216;SDS011;41086;46.736;15.666;2023-01-23T01:32:45;18.92;;;12.65;;
55216;SDS011;41086;46.736;15.666;2023-01-23T01:35:12;19.58;;;13.88;;
55216;SDS011;41086;46.736;15.666;2023-01-23T01:37:39;18.73;;;13.25;;
55216;SDS011;41086;46.736;15.666;2023-01-23T01:40:08;20.95;;;13.43;;
55216;SDS011;41086;46.736;15.666;2023-01-23T01:42:42;18.42;;;12.43;;
55216;SDS011;41086;46.736;15.666;2023-01-23T01:48:15;17.17;;;11.77;;
55216;SDS011;41086;46.736;15.666;2023-01-23T01:50:44;16.67;;;11.20;;
55216;SDS011;41086;46.736;15.666;2023-01-23T01:53:13;18.73;;;11.00;;
55216;SDS011;41086;46.736;15.666;2023-01-23T01:55:39;14.63;;;9.63;;
55216;SDS011;41086;46.736;15.666;2023-01-23T01:58:06;17.90;;;9.60;;
55216;SDS011;41086;46.736;15.666;2023-01-23T02:00:34;13.80;;;8.48;;
55216;SDS011;41086;46.736;15.666;2023-01-23T02:03:01;16.35;;;9.60;;
55216;SDS011;41086;46.736;15.666;2023-01-23T02:05:32;13.70;;;8.98;;
55216;SDS011;41086;46.736;15.666;2023-01-23T02:08:04;16.02;;;9.73;;
55216;SDS011;41086;46.736;15.666;2023-01-23T02:10:36;14.88;;;9.60;;
55216;SDS011;41086;46.736;15.666;2023-01-23T02:15:49;13.40;;;7.88;;
55216;SDS011;41086;46.736;15.666;2023-01-23T02:18:17;15.55;;;8.07;;
55216;SDS011;41086;46.736;15.666;2023-01-23T02:20:45;13.85;;;8.45;;
55216;SDS011;41086;46.736;15.666;2023-01-23T02:26:04;12.38;;;8.10;;
55216;SDS011;41086;46.736;15.666;2023-01-23T02:28:37;15.18;;;8.35;;
55216;SDS011;41086;46.736;15.666;2023-01-23T02:33:45;16.02;;;8.75;;
55216;SDS011;41086;46.736;15.666;2023-01-23T02:36:22;15.18;;;8.80;;
55216;SDS011;41086;46.736;15.666;2023-01-23T02:39:00;13.00;;;8.48;;
55216;SDS011;41086;46.736;15.666;2023-01-23T02:41:29;10.52;;;7.75;;
55216;SDS011;41086;46.736;15.666;2023-01-23T02:44:04;15.52;;;8.77;;
55216;SDS011;41086;46.736;15.666;2023-01-23T02:46:38;14.30;;;8.90;;
55216;SDS011;41086;46.736;15.666;2023-01-23T02:49:05;14.90;;;8.05;;
55216;SDS011;41086;46.736;15.666;2023-01-23T02:53:59;14.13;;;8.40;;
55216;SDS011;41086;46.736;15.666;2023-01-23T02:56:26;13.13;;;8.63;;
55216;SDS011;41086;46.736;15.666;2023-01-23T02:58:54;11.68;;;7.82;;
55216;SDS011;41086;46.736;15.666;2023-01-23T03:01:39;11.63;;;7.82;;
55216;SDS011;41086;46.736;15.666;2023-01-23T03:04:06;17.55;;;9.75;;
55216;SDS011;41086;46.736;15.666;2023-01-23T03:06:36;9.95;;;7.15;;
55216;SDS011;41086;46.736;15.666;2023-01-23T03:09:13;13.43;;;7.45;;
55216;SDS011;41086;46.736;15.666;2023-01-23T03:11:42;12.90;;;7.43;;
55216;SDS011;41086;46.736;15.666;2023-01-23T03:14:11;11.32;;;6.18;;
55216;SDS011;41086;46.736;15.666;2023-01-23T03:16:39;11.57;;;7.28;;
55216;SDS011;41086;46.736;15.666;2023-01-23T03:19:09;12.10;;;6.47;;
55216;SDS011;41086;46.736;15.666;2023-01-23T03:21:37;12.32;;;5.82;;
55216;SDS011;41086;46.736;15.666;2023-01-23T03:24:10;9.20;;;6.07;;
55216;SDS011;41086;46.736;15.666;2023-01-23T03:26:42;9.57;;;6.05;;
55216;SDS011;41086;46.736;15.666;2023-01-23T03:29:15;7.90;;;5.15;;
55216;SDS011;41086;46.736;15.666;2023-01-23T03:32:05;8.00;;;5.03;;
55216;SDS011;41086;46.736;15.666;2023-01-23T03:34:33;9.10;;;5.68;;
55216;SDS011;41086;46.736;15.666;2023-01-23T03:39:30;4.85;;;3.42;;
55216;SDS011;41086;46.736;15.666;2023-01-23T03:42:17;10.80;;;5.65;;
55216;SDS011;41086;46.736;15.666;2023-01-23T03:44:46;14.57;;;6.57;;
55216;SDS011;41086;46.736;15.666;2023-01-23T03:47:13;10.45;;;6.43;;
55216;SDS011;41086;46.736;15.666;2023-01-23T03:49:40;8.93;;;5.30;;
55216;SDS011;41086;46.736;15.666;2023-01-23T03:52:07;13.10;;;5.20;;
55216;SDS011;41086;46.736;15.666;2023-01-23T03:54:34;8.95;;;5.65;;
55216;SDS011;41086;46.736;15.666;2023-01-23T03:57:04;8.80;;;5.63;;
55216;SDS011;41086;46.736;15.666;2023-01-23T03:59:53;8.27;;;5.20;;
55216;SDS011;41086;46.736;15.666;2023-01-23T04:02:24;9.60;;;4.82;;
55216;SDS011;41086;46.736;15.666;2023-01-23T04:04:51;8.45;;;4.72;;
55216;SDS011;41086;46.736;15.666;2023-01-23T04:07:18;7.95;;;4.25;;
55216;SDS011;41086;46.736;15.666;2023-01-23T04:09:45;10.63;;;5.82;;
55216;SDS011;41086;46.736;15.666;2023-01-23T04:12:13;8.93;;;6.00;;
55216;SDS011;41086;46.736;15.666;2023-01-23T04:14:43;7.72;;;4.85;;
55216;SDS011;41086;46.736;15.666;2023-01-23T04:17:12;7.80;;;4.82;;
55216;SDS011;41086;46.736;15.666;2023-01-23T04:19:39;11.45;;;7.45;;
55216;SDS011;41086;46.736;15.666;2023-01-23T04:22:06;9.10;;;4.97;;
55216;SDS011;41086;46.736;15.666;2023-01-23T04:24:39;7.90;;;5.85;;
55216;SDS011;41086;46.736;15.666;2023-01-23T04:27:06;8.45;;;6.22;;
55216;SDS011;41086;46.736;15.666;2023-01-23T04:29:33;12.10;;;7.10;;
55216;SDS011;41086;46.736;15.666;2023-01-23T04:32:01;10.35;;;6.43;;
55216;SDS011;41086;46.736;15.666;2023-01-23T04:34:31;11.45;;;6.57;;
55216;SDS011;41086;46.736;15.666;2023-01-23T04:36:59;9.25;;;6.25;;
55216;SDS011;41086;46.736;15.666;2023-01-23T04:39:26;11.88;;;7.13;;
55216;SDS011;41086;46.736;15.666;2023-01-23T04:41:53;8.25;;;5.00;;
55216;SDS011;41086;46.736;15.666;2023-01-23T04:44:45;9.43;;;6.00;;
55216;SDS011;41086;46.736;15.666;2023-01-23T04:47:32;7.57;;;4.95;;
55216;SDS011;41086;46.736;15.666;2023-01-23T04:50:01;8.82;;;4.65;;
55216;SDS011;41086;46.736;15.666;2023-01-23T04:52:31;10.63;;;5.88;;
55216;SDS011;41086;46.736;15.666;2023-01-23T04:54:58;9.05;;;5.05;;
55216;SDS011;41086;46.736;15.666;2023-01-23T04:57:25;8.43;;;5.45;;
55216;SDS011;41086;46.736;15.666;2023-01-23T05:00:00;8.32;;;5.30;;
55216;SDS011;41086;46.736;15.666;2023-01-23T05:02:28;10.10;;;5.38;;
55216;SDS011;41086;46.736;15.666;2023-01-23T05:04:56;11.35;;;4.05;;
55216;SDS011;41086;46.736;15.666;2023-01-23T05:07:23;10.88;;;5.47;;
55216;SDS011;41086;46.736;15.666;2023-01-23T05:10:16;11.02;;;5.90;;
55216;SDS011;41086;46.736;15.666;2023-01-23T05:12:45;9.23;;;5.63;;
55216;SDS011;41086;46.736;15.666;2023-01-23T05:15:12;10.98;;;4.57;;
55216;SDS011;41086;46.736;15.666;2023-01-23T05:17:40;10.32;;;5.70;;
55216;SDS011;41086;46.736;15.666;2023-01-23T05:20:08;12.70;;;5.75;;
55216;SDS011;41086;46.736;15.666;2023-01-23T05:22:37;9.00;;;4.72;;
55216;SDS011;41086;46.736;15.666;2023-01-23T05:25:05;13.02;;;6.18;;
55216;SDS011;41086;46.736;15.666;2023-01-23T05:27:32;9.55;;;5.95;;
55216;SDS011;41086;46.736;15.666;2023-01-23T05:32:33;11.60;;;5.05;;
55216;SDS011;41086;46.736;15.666;2023-01-23T05:35:10;10.23;;;5.72;;
55216;SDS011;41086;46.736;15.666;2023-01-23T05:37:40;10.15;;;5.50;;
55216;SDS011;41086;46.736;15.666;2023-01-23T05:40:08;10.02;;;5.18;;
55216;SDS011;41086;46.736;15.666;2023-01-23T05:43:06;15.20;;;5.53;;
55216;SDS011;41086;46.736;15.666;2023-01-23T05:45:53;9.02;;;4.43;;
55216;SDS011;41086;46.736;15.666;2023-01-23T05:48:29;10.15;;;4.43;;
55216;SDS011;41086;46.736;15.666;2023-01-23T05:51:00;12.65;;;6.82;;
55216;SDS011;41086;46.736;15.666;2023-01-23T05:53:28;10.38;;;6.07;;
55216;SDS011;41086;46.736;15.666;2023-01-23T05:58:23;10.20;;;6.05;;
55216;SDS011;41086;46.736;15.666;2023-01-23T06:01:19;11.30;;;5.55;;
55216;SDS011;41086;46.736;15.666;2023-01-23T06:04:21;10.82;;;5.55;;
55216;SDS011;41086;46.736;15.666;2023-01-23T06:07:15;9.40;;;5.10;;
55216;SDS011;41086;46.736;15.666;2023-01-23T06:09:44;12.40;;;6.45;;
55216;SDS011;41086;46.736;15.666;2023-01-23T06:12:11;9.75;;;6.28;;
55216;SDS011;41086;46.736;15.666;2023-01-23T06:14:38;17.58;;;6.65;;
55216;SDS011;41086;46.736;15.666;2023-01-23T06:17:06;13.25;;;6.50;;
55216;SDS011;41086;46.736;15.666;2023-01-23T06:19:33;15.85;;;7.35;;
55216;SDS011;41086;46.736;15.666;2023-01-23T06:22:01;10.10;;;6.28;;
55216;SDS011;41086;46.736;15.666;2023-01-23T06:24:36;10.45;;;6.40;;
55216;SDS011;41086;46.736;15.666;2023-01-23T06:27:03;14.18;;;6.05;;
55216;SDS011;41086;46.736;15.666;2023-01-23T06:29:34;8.48;;;5.13;;
55216;SDS011;41086;46.736;15.666;2023-01-23T06:32:01;17.92;;;8.45;;
55216;SDS011;41086;46.736;15.666;2023-01-23T06:34:29;11.77;;;6.38;;
55216;SDS011;41086;46.736;15.666;2023-01-23T06:36:58;10.77;;;5.35;;
55216;SDS011;41086;46.736;15.666;2023-01-23T06:39:25;8.65;;;6.25;;
55216;SDS011;41086;46.736;15.666;2023-01-23T06:41:52;13.60;;;7.80;;
55216;SDS011;41086;46.736;15.666;2023-01-23T06:44:21;16.70;;;9.73;;
55216;SDS011;41086;46.736;15.666;2023-01-23T06:46:49;16.40;;;8.93;;
55216;SDS011;41086;46.736;15.666;2023-01-23T06:49:20;14.55;;;8.13;;
55216;SDS011;41086;46.736;15.666;2023-01-23T06:51:47;11.85;;;6.88;;
55216;SDS011;41086;46.736;15.666;2023-01-23T06:54:14;16.17;;;8.85;;
55216;SDS011;41086;46.736;15.666;2023-01-23T06:56:42;14.05;;;6.60;;
55216;SDS011;41086;46.736;15.666;2023-01-23T06:59:10;9.52;;;4.82;;
55216;SDS011;41086;46.736;15.666;2023-01-23T07:01:38;9.77;;;5.30;;
55216;SDS011;41086;46.736;15.666;2023-01-23T07:04:15;9.27;;;4.85;;
55216;SDS011;41086;46.736;15.666;2023-01-23T07:06:45;9.32;;;4.65;;
55216;SDS011;41086;46.736;15.666;2023-01-23T07:09:14;11.05;;;6.15;;
55216;SDS011;41086;46.736;15.666;2023-01-23T07:11:47;11.10;;;5.35;;
55216;SDS011;41086;46.736;15.666;2023-01-23T07:14:13;7.97;;;4.22;;
55216;SDS011;41086;46.736;15.666;2023-01-23T07:16:42;15.90;;;7.45;;
55216;SDS011;41086;46.736;15.666;2023-01-23T07:19:09;13.35;;;5.97;;
55216;SDS011;41086;46.736;15.666;2023-01-23T07:21:38;20.85;;;8.93;;
55216;SDS011;41086;46.736;15.666;2023-01-23T07:24:05;13.95;;;7.95;;
55216;SDS011;41086;46.736;15.666;2023-01-23T07:26:32;12.80;;;7.75;;
55216;SDS011;41086;46.736;15.666;2023-01-23T07:28:58;17.65;;;8.55;;
55216;SDS011;41086;46.736;15.666;2023-01-23T07:31:25;12.55;;;6.03;;
55216;SDS011;41086;46.736;15.666;2023-01-23T07:33:52;11.48;;;7.32;;
55216;SDS011;41086;46.736;15.666;2023-01-23T07:36:19;12.02;;;7.38;;
55216;SDS011;41086;46.736;15.666;2023-01-23T07:38:45;13.30;;;5.85;;
55216;SDS011;41086;46.736;15.666;2023-01-23T07:41:12;9.63;;;5.10;;
55216;SDS011;41086;46.736;15.666;2023-01-23T07:43:39;10.40;;;5.68;;
55216;SDS011;41086;46.736;15.666;2023-01-23T07:46:06;11.18;;;6.47;;
55216;SDS011;41086;46.736;15.666;2023-01-23T07:48:35;13.18;;;6.35;;
55216;SDS011;41086;46.736;15.666;2023-01-23T07:51:03;8.15;;;4.72;;
55216;SDS011;41086;46.736;15.666;2023-01-23T07:55:57;13.52;;;6.70;;
55216;SDS011;41086;46.736;15.666;2023-01-23T07:58:24;17.98;;;7.47;;
55216;SDS011;41086;46.736;15.666;2023-01-23T08:00:51;15.40;;;9.10;;
55216;SDS011;41086;46.736;15.666;2023-01-23T08:03:18;18.27;;;10.63;;
55216;SDS011;41086;46.736;15.666;2023-01-23T08:05:49;21.27;;;9.38;;
55216;SDS011;41086;46.736;15.666;2023-01-23T08:08:16;15.90;;;7.70;;
55216;SDS011;41086;46.736;15.666;2023-01-23T08:10:43;16.48;;;8.80;;
55216;SDS011;41086;46.736;15.666;2023-01-23T08:13:10;25.20;;;9.02;;
55216;SDS011;41086;46.736;15.666;2023-01-23T08:15:37;16.98;;;9.07;;
55216;SDS011;41086;46.736;15.666;2023-01-23T08:18:04;10.25;;;5.90;;
55216;SDS011;41086;46.736;15.666;2023-01-23T08:20:31;14.15;;;8.00;;
55216;SDS011;41086;46.736;15.666;2023-01-23T08:22:58;9.98;;;4.93;;
55216;SDS011;41086;46.736;15.666;2023-01-23T08:25:27;10.93;;;5.78;;
55216;SDS011;41086;46.736;15.666;2023-01-23T08:27:54;12.55;;;7.18;;
55216;SDS011;41086;46.736;15.666;2023-01-23T08:30:21;13.15;;;7.30;;
55216;SDS011;41086;46.736;15.666;2023-01-23T08:35:15;15.82;;;9.57;;
55216;SDS011;41086;46.736;15.666;2023-01-23T08:40:08;18.45;;;7.13;;
55216;SDS011;41086;46.736;15.666;2023-01-23T08:42:36;9.43;;;5.63;;
55216;SDS011;41086;46.736;15.666;2023-01-23T08:45:02;16.15;;;8.95;;
55216;SDS011;41086;46.736;15.666;2023-01-23T08:47:30;19.55;;;9.95;;
55216;SDS011;41086;46.736;15.666;2023-01-23T08:50:02;13.88;;;8.60;;
55216;SDS011;41086;46.736;15.666;2023-01-23T08:52:32;16.05;;;9.35;;
55216;SDS011;41086;46.736;15.666;2023-01-23T08:55:00;16.58;;;9.30;;
55216;SDS011;41086;46.736;15.666;2023-01-23T08:57:27;29.88;;;9.80;;
55216;SDS011;41086;46.736;15.666;2023-01-23T08:59:54;19.48;;;10.55;;
55216;SDS011;41086;46.736;15.666;2023-01-23T09:02:21;18.23;;;11.35;;
55216;SDS011;41086;46.736;15.666;2023-01-23T09:04:49;17.77;;;9.85;;
55216;SDS011;41086;46.736;15.666;2023-01-23T09:07:16;17.77;;;10.82;;
55216;SDS011;41086;46.736;15.666;2023-01-23T09:09:42;24.90;;;14.32;;
55216;SDS011;41086;46.736;15.666;2023-01-23T09:12:09;20.23;;;11.30;;
55216;SDS011;41086;46.736;15.666;2023-01-23T09:14:36;18.48;;;11.25;;
55216;SDS011;41086;46.736;15.666;2023-01-23T09:17:03;20.13;;;11.98;;
55216;SDS011;41086;46.736;15.666;2023-01-23T09:19:31;15.85;;;7.90;;
55216;SDS011;41086;46.736;15.666;2023-01-23T09:21:58;15.40;;;8.13;;
55216;SDS011;41086;46.736;15.666;2023-01-23T09:24:25;14.27;;;8.55;;
55216;SDS011;41086;46.736;15.666;2023-01-23T09:26:51;18.67;;;10.77;;
55216;SDS011;41086;46.736;15.666;2023-01-23T09:29:18;21.83;;;9.13;;
55216;SDS011;41086;46.736;15.666;2023-01-23T09:31:45;20.05;;;10.68;;
55216;SDS011;41086;46.736;15.666;2023-01-23T09:34:11;17.83;;;9.98;;
55216;SDS011;41086;46.736;15.666;2023-01-23T09:36:41;19.38;;;10.43;;
55216;SDS011;41086;46.736;15.666;2023-01-23T09:39:09;20.13;;;10.55;;
55216;SDS011;41086;46.736;15.666;2023-01-23T09:41:36;23.33;;;9.75;;
55216;SDS011;41086;46.736;15.666;2023-01-23T09:44:19;16.73;;;9.10;;
55216;SDS011;41086;46.736;15.666;2023-01-23T09:54:46;22.98;;;13.02;;
55216;SDS011;41086;46.736;15.666;2023-01-23T09:59:58;19.98;;;12.23;;
55216;SDS011;41086;46.736;15.666;2023-01-23T10:02:32;24.95;;;13.02;;
55216;SDS011;41086;46.736;15.666;2023-01-23T10:04:59;24.55;;;13.60;;
55216;SDS011;41086;46.736;15.666;2023-01-23T10:21:03;16.23;;;8.75;;
55216;SDS011;41086;46.736;15.666;2023-01-23T10:26:28;10.73;;;6.57;;
55216;SDS011;41086;46.736;15.666;2023-01-23T10:29:00;26.02;;;12.23;;
55216;SDS011;41086;46.736;15.666;2023-01-23T10:31:40;19.15;;;9.65;;
55216;SDS011;41086;46.736;15.666;2023-01-23T10:34:14;11.90;;;6.75;;
55216;SDS011;41086;46.736;15.666;2023-01-23T10:42:18;22.85;;;14.30;;
55216;SDS011;41086;46.736;15.666;2023-01-23T10:44:48;38.38;;;16.70;;
55216;SDS011;41086;46.736;15.666;2023-01-23T10:49:46;26.02;;;14.85;;
55216;SDS011;41086;46.736;15.666;2023-01-23T10:52:32;28.33;;;16.88;;
55216;SDS011;41086;46.736;15.666;2023-01-23T10:55:05;28.42;;;14.27;;
55216;SDS011;41086;46.736;15.666;2023-01-23T10:57:53;26.92;;;13.02;;
55216;SDS011;41086;46.736;15.666;2023-01-23T11:00:25;21.60;;;12.00;;
55216;SDS011;41086;46.736;15.666;2023-01-23T11:03:34;18.05;;;8.88;;
55216;SDS011;41086;46.736;15.666;2023-01-23T11:08:34;25.33;;;11.05;;
55216;SDS011;41086;46.736;15.666;2023-01-23T11:13:42;27.52;;;14.10;;
55216;SDS011;41086;46.736;15.666;2023-01-23T11:16:13;21.20;;;9.93;;
55216;SDS011;41086;46.736;15.666;2023-01-23T11:18:45;17.52;;;8.00;;
55216;SDS011;41086;46.736;15.666;2023-01-23T11:21:23;11.88;;;7.80;;
55216;SDS011;41086;46.736;15.666;2023-01-23T11:27:03;17.88;;;8.50;;
55216;SDS011;41086;46.736;15.666;2023-01-23T11:29:51;12.75;;;7.47;;
55216;SDS011;41086;46.736;15.666;2023-01-23T11:32:36;14.85;;;7.70;;
55216;SDS011;41086;46.736;15.666;2023-01-23T11:38:16;10.38;;;5.47;;
55216;SDS011;41086;46.736;15.666;2023-01-23T11:40:55;12.30;;;5.93;;
55216;SDS011;41086;46.736;15.666;2023-01-23T11:43:22;20.17;;;9.32;;
55216;SDS011;41086;46.736;15.666;2023-01-23T11:48:23;21.85;;;10.65;;
55216;SDS011;41086;46.736;15.666;2023-01-23T11:51:25;26.95;;;11.88;;
55216;SDS011;41086;46.736;15.666;2023-01-23T11:57:25;26.73;;;11.13;;
55216;SDS011;41086;46.736;15.666;2023-01-23T12:06:07;47.90;;;22.70;;
55216;SDS011;41086;46.736;15.666;2023-01-23T12:14:31;25.58;;;13.35;;
55216;SDS011;41086;46.736;15.666;2023-01-23T12:17:03;28.35;;;11.50;;
55216;SDS011;41086;46.736;15.666;2023-01-23T12:25:15;14.48;;;7.88;;
55216;SDS011;41086;46.736;15.666;2023-01-23T12:39:45;8.63;;;5.10;;
55216;SDS011;41086;46.736;15.666;2023-01-23T12:42:25;12.90;;;5.50;;
55216;SDS011;41086;46.736;15.666;2023-01-23T12:47:38;11.02;;;6.03;;
55216;SDS011;41086;46.736;15.666;2023-01-23T12:52:53;14.55;;;5.88;;
55216;SDS011;41086;46.736;15.666;2023-01-23T12:55:33;7.85;;;5.50;;
55216;SDS011;41086;46.736;15.666;2023-01-23T12:58:03;8.27;;;5.22;;
55216;SDS011;41086;46.736;15.666;2023-01-23T13:09:09;13.30;;;6.28;;
55216;SDS011;41086;46.736;15.666;2023-01-23T13:12:03;12.85;;;6.60;;
55216;SDS011;41086;46.736;15.666;2023-01-23T13:14:51;10.52;;;5.55;;
55216;SDS011;41086;46.736;15.666;2023-01-23T13:18:14;13.40;;;5.38;;
55216;SDS011;41086;46.736;15.666;2023-01-23T13:20:57;13.13;;;7.28;;
55216;SDS011;41086;46.736;15.666;2023-01-23T13:23:43;12.25;;;6.28;;
55216;SDS011;41086;46.736;15.666;2023-01-23T13:28:51;17.23;;;8.93;;
55216;SDS011;41086;46.736;15.666;2023-01-23T13:31:33;14.82;;;8.55;;
55216;SDS011;41086;46.736;15.666;2023-01-23T13:36:45;19.77;;;9.70;;
55216;SDS011;41086;46.736;15.666;2023-01-23T13:41:42;12.73;;;7.07;;
55216;SDS011;41086;46.736;15.666;2023-01-23T13:44:21;15.90;;;6.95;;
55216;SDS011;41086;46.736;15.666;2023-01-23T13:47:11;19.77;;;9.05;;
55216;SDS011;41086;46.736;15.666;2023-01-23T13:50:19;24.50;;;11.32;;
55216;SDS011;41086;46.736;15.666;2023-01-23T13:53:19;18.27;;;10.73;;
55216;SDS011;41086;46.736;15.666;2023-01-23T13:56:22;33.63;;;12.85;;
55216;SDS011;41086;46.736;15.666;2023-01-23T13:59:25;25.38;;;15.15;;
55216;SDS011;41086;46.736;15.666;2023-01-23T14:02:37;22.85;;;13.88;;
55216;SDS011;41086;46.736;15.666;2023-01-23T14:05:41;19.67;;;10.27;;
55216;SDS011;41086;46.736;15.666;2023-01-23T14:08:22;18.75;;;10.57;;
55216;SDS011;41086;46.736;15.666;2023-01-23T14:11:09;21.58;;;13.05;;
55216;SDS011;41086;46.736;15.666;2023-01-23T14:13:53;24.85;;;11.35;;
55216;SDS011;41086;46.736;15.666;2023-01-23T14:16:54;19.33;;;11.02;;
55216;SDS011;41086;46.736;15.666;2023-01-23T14:19:37;20.33;;;10.40;;
55216;SDS011;41086;46.736;15.666;2023-01-23T14:25:15;15.02;;;6.88;;
55216;SDS011;41086;46.736;15.666;2023-01-23T14:28:00;13.70;;;5.43;;
55216;SDS011;41086;46.736;15.666;2023-01-23T14:30:29;12.50;;;5.88;;
55216;SDS011;41086;46.736;15.666;2023-01-23T14:35:27;13.27;;;6.05;;
55216;SDS011;41086;46.736;15.666;2023-01-23T14:37:59;13.70;;;8.05;;
55216;SDS011;41086;46.736;15.666;2023-01-23T14:40:28;15.23;;;7.70;;
55216;SDS011;41086;46.736;15.666;2023-01-23T14:43:11;14.68;;;8.07;;
55216;SDS011;41086;46.736;15.666;2023-01-23T14:45:45;12.90;;;7.60;;
55216;SDS011;41086;46.736;15.666;2023-01-23T14:48:15;11.70;;;6.78;;
55216;SDS011;41086;46.736;15.666;2023-01-23T14:50:43;12.95;;;7.05;;
55216;SDS011;41086;46.736;15.666;2023-01-23T14:53:14;13.43;;;6.57;;
55216;SDS011;41086;46.736;15.666;2023-01-23T14:55:44;16.35;;;9.30;;
55216;SDS011;41086;46.736;15.666;2023-01-23T14:58:20;13.73;;;7.32;;
55216;SDS011;41086;46.736;15.666;2023-01-23T15:00:49;16.77;;;7.13;;
55216;SDS011;41086;46.736;15.666;2023-01-23T15:03:37;13.10;;;5.65;;
55216;SDS011;41086;46.736;15.666;2023-01-23T15:06:07;14.50;;;5.68;;
55216;SDS011;41086;46.736;15.666;2023-01-23T15:08:37;15.00;;;6.60;;
55216;SDS011;41086;46.736;15.666;2023-01-23T15:11:04;12.05;;;6.43;;
55216;SDS011;41086;46.736;15.666;2023-01-23T15:19:00;12.20;;;6.57;;
55216;SDS011;41086;46.736;15.666;2023-01-23T15:21:44;15.77;;;7.95;;
55216;SDS011;41086;46.736;15.666;2023-01-23T15:26:42;18.65;;;11.13;;
55216;SDS011;41086;46.736;15.666;2023-01-23T15:39:28;17.90;;;8.77;;
55216;SDS011;41086;46.736;15.666;2023-01-23T15:44:40;11.90;;;5.65;;
55216;SDS011;41086;46.736;15.666;2023-01-23T15:47:08;10.63;;;5.88;;
55216;SDS011;41086;46.736;15.666;2023-01-23T15:49:36;17.33;;;8.60;;
55216;SDS011;41086;46.736;15.666;2023-01-23T15:55:18;18.58;;;6.97;;
55216;SDS011;41086;46.736;15.666;2023-01-23T15:57:48;10.05;;;5.40;;
55216;SDS011;41086;46.736;15.666;2023-01-23T16:00:22;9.32;;;5.03;;
55216;SDS011;41086;46.736;15.666;2023-01-23T16:02:54;12.80;;;6.93;;
55216;SDS011;41086;46.736;15.666;2023-01-23T16:05:31;11.07;;;6.60;;
55216;SDS011;41086;46.736;15.666;2023-01-23T16:08:01;13.40;;;7.65;;
55216;SDS011;41086;46.736;15.666;2023-01-23T16:10:29;31.45;;;14.77;;
55216;SDS011;41086;46.736;15.666;2023-01-23T16:12:59;23.75;;;10.10;;
55216;SDS011;41086;46.736;15.666;2023-01-23T16:15:27;30.63;;;18.13;;
55216;SDS011;41086;46.736;15.666;2023-01-23T16:17:56;27.52;;;13.68;;
55216;SDS011;41086;46.736;15.666;2023-01-23T16:20:25;27.55;;;13.82;;
55216;SDS011;41086;46.736;15.666;2023-01-23T16:22:57;17.65;;;10.52;;
55216;SDS011;41086;46.736;15.666;2023-01-23T16:25:39;19.73;;;10.25;;
55216;SDS011;41086;46.736;15.666;2023-01-23T16:28:14;26.08;;;11.35;;
55216;SDS011;41086;46.736;15.666;2023-01-23T16:30:44;21.25;;;9.85;;
55216;SDS011;41086;46.736;15.666;2023-01-23T16:33:11;11.45;;;5.28;;
55216;SDS011;41086;46.736;15.666;2023-01-23T16:38:06;13.60;;;7.22;;
55216;SDS011;41086;46.736;15.666;2023-01-23T16:40:33;12.52;;;5.90;;
55216;SDS011;41086;46.736;15.666;2023-01-23T16:43:00;12.90;;;6.88;;
55216;SDS011;41086;46.736;15.666;2023-01-23T16:45:29;12.95;;;6.43;;
55216;SDS011;41086;46.736;15.666;2023-01-23T16:47:57;13.77;;;7.30;;
55216;SDS011;41086;46.736;15.666;2023-01-23T16:50:31;14.68;;;8.02;;
55216;SDS011;41086;46.736;15.666;2023-01-23T16:55:37;19.73;;;10.02;;
55216;SDS011;41086;46.736;15.666;2023-01-23T16:58:06;16.83;;;8.40;;
55216;SDS011;41086;46.736;15.666;2023-01-23T17:00:38;13.15;;;7.13;;
55216;SDS011;41086;46.736;15.666;2023-01-23T17:03:07;13.20;;;7.63;;
55216;SDS011;41086;46.736;15.666;2023-01-23T17:05:35;13.65;;;8.48;;
55216;SDS011;41086;46.736;15.666;2023-01-23T17:10:43;13.93;;;7.70;;
55216;SDS011;41086;46.736;15.666;2023-01-23T17:13:12;11.90;;;7.05;;
55216;SDS011;41086;46.736;15.666;2023-01-23T17:15:41;13.55;;;7.28;;
55216;SDS011;41086;46.736;15.666;2023-01-23T17:18:09;8.90;;;5.78;;
55216;SDS011;41086;46.736;15.666;2023-01-23T17:20:46;16.85;;;7.75;;
55216;SDS011;41086;46.736;15.666;2023-01-23T17:23:14;13.05;;;7.05;;
55216;SDS011;41086;46.736;15.666;2023-01-23T17:25:41;10.32;;;7.10;;
55216;SDS011;41086;46.736;15.666;2023-01-23T17:28:25;12.73;;;8.60;;
55216;SDS011;41086;46.736;15.666;2023-01-23T17:30:52;16.40;;;7.78;;
55216;SDS011;41086;46.736;15.666;2023-01-23T17:33:25;18.35;;;8.63;;
55216;SDS011;41086;46.736;15.666;2023-01-23T17:35:57;16.95;;;8.00;;
55216;SDS011;41086;46.736;15.666;2023-01-23T17:38:25;11.52;;;6.57;;
55216;SDS011;41086;46.736;15.666;2023-01-23T17:41:00;7.57;;;4.90;;